Time;durP1;ratioP1;P1;durP2;ratioP2;P2;SDS_P1;SDS_P2;PMS_P1;PMS_P2;Temp;Humidity;BMP_temperature;BMP_pressure;BME280_temperature;BME280_humidity;BME280_pressure;Samples;Min_cycle;Max_cycle;Signal;HPM_P1;HPM_P2
2023/09/12 00:01:06;;;;;;;1.25;1.08;;;;;;;17.13;100.00;100609.00;5046855;28;20044;-76
2023/09/12 00:03:34;;;;;;;0.85;0.65;;;;;;;16.21;100.00;100503.31;5046652;28;20057;-76
2023/09/12 00:06:01;;;;;;;1.92;0.70;;;;;;;16.64;100.00;100565.06;5044890;28;20048;-76
2023/09/12 00:08:27;;;;;;;0.57;0.47;;;;;;;16.18;100.00;100510.47;5039931;28;20043;-76
2023/09/12 00:11:11;;;;;;;0.60;0.60;;;;;;;16.70;100.00;100609.13;5039162;28;20399;-76
2023/09/12 00:13:41;;;;;;;0.30;0.30;;;;;;;16.35;100.00;100576.31;5047966;28;20033;-75
2023/09/12 00:16:09;;;;;;;0.50;0.47;;;;;;;16.25;100.00;100557.09;5035022;28;20037;-75
2023/09/12 00:18:35;;;;;;;1.27;0.88;;;;;;;16.48;100.00;100612.19;5045033;28;20064;-76
2023/09/12 00:21:01;;;;;;;0.75;0.75;;;;;;;16.47;100.00;100626.38;5042504;28;20034;-76
2023/09/12 00:23:27;;;;;;;1.17;1.05;;;;;;;16.62;100.00;100630.47;5041223;28;20037;-74
2023/09/12 00:25:52;;;;;;;13.27;2.22;;;;;;;16.01;100.00;100524.94;5039178;28;20112;-76
2023/09/12 00:28:19;;;;;;;1.10;1.02;;;;;;;16.46;100.00;100627.28;5042667;28;20039;-76
2023/09/12 00:30:45;;;;;;;5.53;1.85;;;;;;;16.34;100.00;100620.47;5038580;28;20045;-76
2023/09/12 00:33:10;;;;;;;1.08;0.63;;;;;;;16.31;100.00;100583.44;5042440;28;20432;-75
2023/09/12 00:35:36;;;;;;;2.28;1.65;;;;;;;16.01;100.00;100526.69;5035982;28;20034;-76
2023/09/12 00:38:01;;;;;;;3.95;1.58;;;;;;;15.82;100.00;100505.88;5036537;28;20145;-73
2023/09/12 00:40:27;;;;;;;0.40;0.40;;;;;;;16.49;100.00;100619.25;5038965;28;20120;-75
2023/09/12 00:42:52;;;;;;;1.17;0.82;;;;;;;15.95;100.00;100509.16;5045037;28;20041;-77
2023/09/12 00:45:18;;;;;;;2.08;1.60;;;;;;;16.22;100.00;100615.38;5034893;28;20041;-76
2023/09/12 00:47:44;;;;;;;0.65;0.57;;;;;;;16.19;100.00;100615.47;5044239;28;20049;-76
2023/09/12 00:50:10;;;;;;;1.15;0.90;;;;;;;15.63;100.00;100533.59;5038869;28;20068;-75
2023/09/12 00:52:38;;;;;;;1.35;1.15;;;;;;;16.13;100.00;100620.88;5047571;28;20036;-74
2023/09/12 00:55:04;;;;;;;1.48;1.15;;;;;;;16.10;100.00;100611.22;5045171;28;20051;-74
2023/09/12 00:57:31;;;;;;;0.77;0.77;;;;;;;16.00;100.00;100599.06;5043525;28;20080;-74
2023/09/12 00:59:57;;;;;;;3.22;1.55;;;;;;;16.33;100.00;100616.06;5044883;28;20045;-76
2023/09/12 01:02:24;;;;;;;0.75;0.73;;;;;;;15.43;100.00;100433.47;5043051;28;20120;-75
2023/09/12 01:04:50;;;;;;;1.15;1.05;;;;;;;16.48;100.00;100591.00;5040015;28;20495;-75
2023/09/12 01:07:16;;;;;;;1.25;1.05;;;;;;;16.26;100.00;100548.25;5044076;28;20033;-76
2023/09/12 01:09:41;;;;;;;1.00;0.93;;;;;;;15.97;100.00;100495.91;5046763;28;20116;-75
2023/09/12 01:12:08;;;;;;;1.48;1.38;;;;;;;15.93;100.00;100510.97;5041718;28;20029;-76
2023/09/12 01:14:34;;;;;;;0.47;0.45;;;;;;;15.86;100.00;100516.44;5039827;28;20515;-76
2023/09/12 01:17:01;;;;;;;3.15;1.65;;;;;;;16.43;100.00;100606.13;5046437;28;20043;-74
2023/09/12 01:19:27;;;;;;;1.65;0.95;;;;;;;16.48;100.00;100617.50;5044692;28;20068;-76
2023/09/12 01:22:20;;;;;;;0.43;0.43;;;;;;;16.42;100.00;100618.50;5044265;28;20507;-75
2023/09/12 01:25:04;;;;;;;1.98;1.25;;;;;;;16.38;100.00;100626.56;5044685;28;20053;-75
2023/09/12 01:27:31;;;;;;;2.30;1.52;;;;;;;16.36;100.00;100612.47;5022966;28;20053;-77
2023/09/12 01:30:00;;;;;;;2.53;2.30;;;;;;;16.29;100.00;100601.13;5033752;28;20056;-74
2023/09/12 01:32:26;;;;;;;0.60;0.60;;;;;;;15.90;100.00;100537.50;5045150;28;20563;-75
2023/09/12 01:34:52;;;;;;;0.82;0.80;;;;;;;16.33;100.00;100629.28;5040316;28;20139;-74
2023/09/12 01:37:17;;;;;;;10.90;2.13;;;;;;;16.03;100.00;100630.75;5045154;28;20025;-74
2023/09/12 01:39:43;;;;;;;1.85;1.30;;;;;;;15.38;100.00;100518.19;5043040;28;20045;-77
2023/09/12 01:42:14;;;;;;;1.60;0.80;;;;;;;16.25;100.00;100628.59;5045261;28;20071;-76
2023/09/12 01:44:43;;;;;;;4.63;3.55;;;;;;;16.37;100.00;100630.97;5043613;28;20127;-74
2023/09/12 01:47:10;;;;;;;0.77;0.77;;;;;;;16.18;100.00;100619.91;5036146;28;20049;-75
2023/09/12 01:49:37;;;;;;;1.30;1.15;;;;;;;15.83;100.00;100617.91;5041858;28;20032;-74
2023/09/12 01:52:03;;;;;;;1.70;1.45;;;;;;;15.93;100.00;100627.44;5045973;28;20141;-75
2023/09/12 01:54:29;;;;;;;1.58;1.33;;;;;;;16.00;100.00;100610.53;5041436;28;20055;-76
2023/09/12 01:56:57;;;;;;;1.48;0.85;;;;;;;15.83;100.00;100599.41;5040949;28;20045;-75
2023/09/12 01:59:24;;;;;;;1.65;1.55;;;;;;;16.19;100.00;100621.63;5037889;28;20505;-75
2023/09/12 02:01:50;;;;;;;1.13;1.02;;;;;;;16.21;100.00;100616.31;5046041;28;20029;-76
2023/09/12 02:04:16;;;;;;;4.88;1.13;;;;;;;16.22;100.00;100633.94;5038520;28;20037;-76
2023/09/12 02:06:41;;;;;;;1.25;1.17;;;;;;;16.08;100.00;100623.59;5046103;28;20763;-74
2023/09/12 02:09:07;;;;;;;3.38;3.08;;;;;;;14.46;100.00;100334.81;5042079;28;20055;-74
2023/09/12 02:11:32;;;;;;;6.05;2.38;;;;;;;16.01;100.00;100608.75;5042888;28;20074;-76
2023/09/12 02:13:58;;;;;;;1.65;1.05;;;;;;;16.06;100.00;100600.72;5033684;28;20037;-74
2023/09/12 02:16:23;;;;;;;1.83;1.67;;;;;;;15.92;100.00;100624.78;5041144;28;20074;-76
2023/09/12 02:18:49;;;;;;;1.58;1.48;;;;;;;15.30;100.00;100519.22;5040619;28;20033;-75
2023/09/12 02:21:15;;;;;;;2.03;1.80;;;;;;;16.01;100.00;100632.56;5045800;28;20041;-75
2023/09/12 02:23:41;;;;;;;2.63;1.65;;;;;;;15.67;100.00;100545.84;5041235;28;20045;-76
2023/09/12 02:26:07;;;;;;;1.95;1.58;;;;;;;16.12;100.00;100627.94;5042379;28;20025;-75
2023/09/12 02:28:33;;;;;;;0.40;0.40;;;;;;;15.48;100.00;100532.09;5044515;28;20373;-74
2023/09/12 02:30:58;;;;;;;3.75;1.73;;;;;;;16.08;100.00;100623.59;5058551;28;20060;-74
2023/09/12 02:33:23;;;;;;;2.58;2.35;;;;;;;15.73;100.00;100621.63;5045427;28;20068;-74
2023/09/12 02:35:49;;;;;;;2.00;1.85;;;;;;;14.99;100.00;100515.31;5040205;28;20469;-78
2023/09/12 02:38:14;;;;;;;2.72;1.23;;;;;;;15.65;100.00;100619.06;5042588;28;20140;-75
2023/09/12 02:40:40;;;;;;;1.00;0.43;;;;;;;15.72;100.00;100591.66;5037882;28;20038;-76
2023/09/12 02:43:05;;;;;;;4.47;2.80;;;;;;;15.72;100.00;100569.63;5041192;28;20064;-75
2023/09/12 02:45:31;;;;;;;3.55;2.05;;;;;;;15.46;100.00;100530.38;5042104;28;20095;-75
2023/09/12 02:47:56;;;;;;;13.18;7.00;;;;;;;16.01;100.00;100632.56;5045083;28;20076;-75
2023/09/12 02:50:22;;;;;;;1.15;0.80;;;;;;;16.10;100.00;100642.13;5043694;28;20049;-74
2023/09/12 02:52:47;;;;;;;9.95;3.72;;;;;;;15.58;100.00;100553.97;5049910;28;20095;-75
2023/09/12 02:55:13;;;;;;;2.85;1.95;;;;;;;15.47;100.00;100517.13;5045652;28;20103;-74
2023/09/12 02:57:38;;;;;;;1.77;1.67;;;;;;;15.98;100.00;100617.63;5047738;28;20057;-74
2023/09/12 03:00:07;;;;;;;9.35;5.38;;;;;;;15.15;100.00;100510.66;5041091;28;20087;-76
2023/09/12 03:02:32;;;;;;;2.22;1.45;;;;;;;15.28;100.00;100553.59;5048834;28;20086;-76
2023/09/12 03:04:58;;;;;;;1.50;0.52;;;;;;;15.96;100.00;100629.13;5044780;28;20037;-75
2023/09/12 03:07:23;;;;;;;1.52;1.42;;;;;;;15.88;100.00;100631.06;5049565;28;20059;-76
2023/09/12 03:09:49;;;;;;;2.30;2.00;;;;;;;14.93;100.00;100525.97;5045379;28;20439;-76
2023/09/12 03:12:15;;;;;;;2.63;1.58;;;;;;;15.86;100.00;100644.31;5047777;28;20053;-76
2023/09/12 03:14:41;;;;;;;2.90;2.30;;;;;;;15.57;100.00;100650.97;5040541;28;20692;-75
2023/09/12 03:17:06;;;;;;;0.70;0.70;;;;;;;15.60;100.00;100635.03;5039402;28;20028;-75
2023/09/12 03:19:32;;;;;;;8.57;1.38;;;;;;;14.97;100.00;100555.88;5044527;28;20074;-75
2023/09/12 03:21:57;;;;;;;0.75;0.70;;;;;;;14.97;100.00;100619.31;5048321;28;20045;-73
2023/09/12 03:24:24;;;;;;;0.63;0.60;;;;;;;14.93;100.00;100580.59;5044770;28;20072;-75
2023/09/12 03:26:50;;;;;;;1.98;1.77;;;;;;;14.78;100.00;100564.09;5039969;28;20041;-76
2023/09/12 03:29:16;;;;;;;1.75;1.65;;;;;;;14.39;100.00;100533.81;5045148;28;20243;-76
2023/09/12 03:31:42;;;;;;;0.73;0.73;;;;;;;14.46;100.00;100534.59;5048838;28;20056;-75
2023/09/12 03:34:07;;;;;;;0.73;0.73;;;;;;;15.15;100.00;100637.53;5044783;28;20147;-76
2023/09/12 03:36:32;;;;;;;1.08;0.93;;;;;;;14.97;100.00;100601.66;5041836;28;20041;-76
2023/09/12 03:38:58;;;;;;;1.23;1.13;;;;;;;14.97;100.00;100641.31;5039828;28;20049;-75
2023/09/12 03:41:25;;;;;;;4.43;2.92;;;;;;;14.46;100.00;100540.75;5035009;28;20054;-75
2023/09/12 03:43:53;;;;;;;0.75;0.75;;;;;;;15.17;100.00;100662.16;5041942;28;20915;-75
2023/09/12 03:46:19;;;;;;;0.40;0.40;;;;;;;14.51;100.00;100525.69;5038971;28;20067;-74
2023/09/12 03:48:45;;;;;;;1.92;1.83;;;;;;;15.11;100.00;100621.75;5039899;28;20073;-75
2023/09/12 03:51:11;;;;;;;0.30;0.30;;;;;;;14.77;100.00;100527.13;5042280;28;20070;-76
2023/09/12 03:53:36;;;;;;;1.75;1.08;;;;;;;15.35;100.00;100638.97;5055031;28;20124;-75
2023/09/12 03:56:02;;;;;;;0.30;0.30;;;;;;;14.73;100.00;100546.56;5033433;28;20397;-75
2023/09/12 03:58:27;;;;;;;1.30;1.20;;;;;;;15.30;100.00;100646.13;5043512;28;20124;-76
2023/09/12 04:00:53;;;;;;;0.55;0.50;;;;;;;14.65;100.00;100522.88;5033119;28;20086;-76
2023/09/12 04:03:20;;;;;;;2.28;1.83;;;;;;;15.06;100.00;100597.16;5036084;28;20048;-75
2023/09/12 04:05:47;;;;;;;1.33;0.93;;;;;;;15.10;100.00;100625.25;5032615;28;20580;-77
2023/09/12 04:08:13;;;;;;;1.65;1.05;;;;;;;14.73;100.00;100541.28;5043924;28;20044;-75
2023/09/12 04:10:38;;;;;;;2.38;1.50;;;;;;;14.92;100.00;100555.09;5029492;28;20477;-74
2023/09/12 04:13:04;;;;;;;0.77;0.75;;;;;;;14.90;100.00;100530.44;5035587;28;20053;-74
2023/09/12 04:15:29;;;;;;;2.30;1.80;;;;;;;14.99;100.00;100531.16;5035835;28;20531;-76
2023/09/12 04:17:54;;;;;;;0.77;0.75;;;;;;;15.28;100.00;100635.56;5047810;28;20060;-76
2023/09/12 04:20:20;;;;;;;0.85;0.77;;;;;;;14.91;100.00;100558.59;5034983;28;20041;-76
2023/09/12 04:22:46;;;;;;;0.50;0.50;;;;;;;15.13;100.00;100636.66;5044962;28;20478;-75
2023/09/12 04:25:11;;;;;;;1.05;0.82;;;;;;;15.19;100.00;100633.94;5043703;28;20052;-76
2023/09/12 04:27:37;;;;;;;3.05;2.25;;;;;;;14.72;100.00;100585.28;5032682;28;20046;-76
2023/09/12 04:30:03;;;;;;;1.30;1.20;;;;;;;14.41;100.00;100521.47;5036129;28;20516;-76
2023/09/12 04:32:29;;;;;;;19.00;2.55;;;;;;;14.70;100.00;100554.53;5041665;28;20049;-75
2023/09/12 04:34:55;;;;;;;1.48;0.73;;;;;;;14.34;100.00;100485.47;5033946;28;20033;-76
2023/09/12 04:37:20;;;;;;;1.00;0.73;;;;;;;14.71;100.00;100543.06;5038613;28;20052;-75
2023/09/12 04:39:46;;;;;;;1.92;1.75;;;;;;;15.22;100.00;100605.69;5034533;28;20049;-77
2023/09/12 04:42:11;;;;;;;2.03;1.90;;;;;;;14.92;100.00;100577.09;5042616;28;20086;-77
2023/09/12 04:44:40;;;;;;;1.85;1.25;;;;;;;14.80;100.00;100558.78;5039596;28;20128;-75
2023/09/12 04:47:06;;;;;;;4.68;1.67;;;;;;;14.77;100.00;100537.69;5041588;28;20060;-76
2023/09/12 04:49:31;;;;;;;5.20;2.63;;;;;;;15.44;100.00;100628.25;5038214;28;20104;-75
2023/09/12 04:51:57;;;;;;;1.10;0.77;;;;;;;15.19;100.00;100532.59;5035402;28;20120;-77
2023/09/12 04:54:22;;;;;;;5.20;1.83;;;;;;;15.84;100.00;100627.59;5039104;28;20417;-76
2023/09/12 04:56:48;;;;;;;10.02;2.75;;;;;;;15.97;100.00;100652.94;5040980;28;20033;-76
2023/09/12 04:59:13;;;;;;;5.40;3.08;;;;;;;15.56;100.00;100569.84;5042753;28;20517;-76
2023/09/12 05:01:39;;;;;;;0.65;0.63;;;;;;;15.59;100.00;100555.69;5053206;28;20075;-76
2023/09/12 05:04:04;;;;;;;0.63;0.60;;;;;;;15.69;100.00;100567.00;5039670;28;20060;-75
2023/09/12 05:06:30;;;;;;;2.05;1.85;;;;;;;15.91;100.00;100552.47;5036486;28;20045;-77
2023/09/12 05:08:55;;;;;;;1.50;1.40;;;;;;;16.18;100.00;100566.06;5041580;28;20075;-76
2023/09/12 05:11:24;;;;;;;2.17;2.00;;;;;;;15.95;100.00;100516.25;5031820;28;20092;-76
2023/09/12 05:13:50;;;;;;;1.13;1.02;;;;;;;16.45;100.00;100588.44;5033355;28;20115;-76
2023/09/12 05:16:15;;;;;;;1.55;1.45;;;;;;;17.15;100.00;100652.28;5036194;28;20040;-75
2023/09/12 05:18:41;;;;;;;2.00;1.83;;;;;;;17.96;100.00;100665.34;5031625;28;20041;-76
2023/09/12 05:21:07;;;;;;;2.78;2.33;;;;;;;19.22;100.00;100672.34;5035274;28;20539;-76
2023/09/12 05:23:32;;;;;;;4.85;2.88;;;;;;;19.74;100.00;100676.03;5042840;28;20121;-76
2023/09/12 05:25:58;;;;;;;6.43;1.90;;;;;;;19.15;100.00;100622.91;5039895;28;20026;-75
2023/09/12 05:28:23;;;;;;;13.38;1.23;;;;;;;19.49;100.00;100654.63;5039923;28;20112;-74
2023/09/12 05:30:49;;;;;;;1.50;1.40;;;;;;;19.09;100.00;100669.22;5025333;28;20053;-75
2023/09/12 05:33:14;;;;;;;2.53;1.60;;;;;;;19.29;100.00;100575.47;5027435;28;20041;-77
2023/09/12 05:35:40;;;;;;;5.55;1.88;;;;;;;20.65;100.00;100683.50;5035853;28;20155;-77
2023/09/12 05:38:05;;;;;;;1.10;0.73;;;;;;;20.86;100.00;100656.00;5040393;28;20040;-75
2023/09/12 05:40:31;;;;;;;3.90;2.15;;;;;;;21.68;100.00;100620.69;5028732;28;20357;-76
2023/09/12 05:42:56;;;;;;;1.65;1.05;;;;;;;21.64;100.00;100601.25;5036587;28;20439;-74
2023/09/12 05:45:23;;;;;;;2.33;2.05;;;;;;;21.25;100.00;100674.03;5036007;28;20385;-77
2023/09/12 05:47:50;;;;;;;4.03;2.42;;;;;;;21.44;100.00;100681.34;5038722;28;20049;-76
2023/09/12 05:50:16;;;;;;;1.05;0.93;;;;;;;21.73;100.00;100687.25;5041232;28;20120;-81
2023/09/12 05:52:42;;;;;;;3.85;2.72;;;;;;;21.75;100.00;100603.47;5036556;28;20037;-76
2023/09/12 05:55:08;;;;;;;5.60;1.88;;;;;;;23.04;98.73;100690.41;5040349;28;20536;-76
2023/09/12 05:57:34;;;;;;;2.03;1.67;;;;;;;22.19;100.00;100677.28;5037924;28;20063;-76
2023/09/12 06:00:00;;;;;;;3.28;3.00;;;;;;;22.16;100.00;100678.28;5034085;28;20060;-76
2023/09/12 06:02:27;;;;;;;0.70;0.70;;;;;;;21.55;100.00;100664.88;5038914;28;20562;-75
2023/09/12 06:04:52;;;;;;;4.60;2.88;;;;;;;21.26;100.00;100658.91;5035310;28;20374;-76
2023/09/12 06:07:19;;;;;;;3.10;2.72;;;;;;;21.35;100.00;100652.31;5037644;28;20026;-75
2023/09/12 06:09:44;;;;;;;3.10;2.05;;;;;;;21.07;100.00;100600.94;5036978;28;20090;-75
2023/09/12 06:12:10;;;;;;;2.30;1.83;;;;;;;22.01;100.00;100685.19;5039205;28;20037;-75
2023/09/12 06:14:35;;;;;;;0.68;0.68;;;;;;;21.47;100.00;100675.88;5034667;28;20048;-75
2023/09/12 06:17:01;;;;;;;2.58;2.38;;;;;;;19.99;100.00;100526.91;5035646;28;20025;-76
2023/09/12 06:19:26;;;;;;;2.47;1.75;;;;;;;21.15;100.00;100664.66;5045683;28;20136;-75
2023/09/12 06:21:52;;;;;;;2.67;1.50;;;;;;;20.12;100.00;100633.00;5043970;28;20051;-75
2023/09/12 06:24:21;;;;;;;1.23;1.17;;;;;;;19.91;100.00;100624.84;5037916;28;20069;-75
2023/09/12 06:26:47;;;;;;;2.70;2.47;;;;;;;20.15;100.00;100635.53;5042531;28;20482;-76
2023/09/12 06:29:14;;;;;;;1.35;1.25;;;;;;;20.58;100.00;100689.97;5044386;28;20069;-76
2023/09/12 06:31:41;;;;;;;3.75;1.02;;;;;;;20.13;100.00;100598.28;5038845;28;20037;-74
2023/09/12 06:34:07;;;;;;;4.88;3.45;;;;;;;19.91;100.00;100618.66;5038757;28;20098;-76
2023/09/12 06:36:32;;;;;;;0.65;0.57;;;;;;;20.66;100.00;100687.91;5037879;28;20153;-77
2023/09/12 06:38:59;;;;;;;0.90;0.80;;;;;;;20.61;100.00;100709.41;5034113;28;20131;-76
2023/09/12 06:41:26;;;;;;;2.03;1.48;;;;;;;20.15;100.00;100632.88;5032117;28;20045;-75
2023/09/12 06:43:51;;;;;;;5.38;2.63;;;;;;;20.58;100.00;100697.97;5040283;28;20060;-76
2023/09/12 06:46:17;;;;;;;5.70;1.98;;;;;;;20.76;100.00;100697.28;5037411;28;20057;-75
2023/09/12 06:48:44;;;;;;;3.88;2.97;;;;;;;20.91;100.00;100718.97;5037825;28;20088;-76
2023/09/12 06:51:10;;;;;;;1.00;0.80;;;;;;;20.64;100.00;100618.63;5029303;28;20057;-76
2023/09/12 06:53:38;;;;;;;9.85;2.13;;;;;;;20.75;100.00;100602.22;5041448;28;20045;-74
2023/09/12 06:56:07;;;;;;;1.88;1.70;;;;;;;21.08;100.00;100724.53;5054196;28;20412;-76
2023/09/12 06:58:33;;;;;;;2.30;2.03;;;;;;;20.17;100.00;100637.22;5046747;28;20032;-76
2023/09/12 07:01:07;;;;;;;2.80;1.67;;;;;;;21.01;100.00;100697.22;5041520;28;20413;-76
2023/09/12 07:03:34;;;;;;;2.50;2.30;;;;;;;20.99;100.00;100722.22;5037087;28;20073;-76
2023/09/12 07:06:00;;;;;;;1.63;1.52;;;;;;;20.97;100.00;100698.25;5038417;28;20041;-76
2023/09/12 07:08:26;;;;;;;2.65;2.05;;;;;;;20.99;100.00;100727.56;5039756;28;20515;-76
2023/09/12 07:10:54;;;;;;;1.17;1.08;;;;;;;21.57;100.00;100716.44;5036440;28;20074;-74
2023/09/12 07:13:23;;;;;;;1.83;0.98;;;;;;;21.87;100.00;100712.47;5040231;28;20420;-75
2023/09/12 07:15:50;;;;;;;2.30;2.00;;;;;;;21.39;100.00;100720.66;5034431;28;20048;-73
2023/09/12 07:18:15;;;;;;;2.88;1.83;;;;;;;21.23;100.00;100726.59;5033720;28;20076;-75
2023/09/12 07:20:41;;;;;;;1.38;0.85;;;;;;;21.32;100.00;100634.63;5045366;28;20072;-74
2023/09/12 07:23:07;;;;;;;1.38;1.27;;;;;;;21.91;100.00;100711.44;5030776;28;20665;-75
2023/09/12 07:25:42;;;;;;;2.78;2.60;;;;;;;21.54;100.00;100644.44;5041394;28;20117;-74
2023/09/12 07:28:08;;;;;;;5.32;1.52;;;;;;;22.08;100.00;100708.03;5034756;28;20040;-74
2023/09/12 07:30:37;;;;;;;9.43;1.90;;;;;;;21.92;100.00;100682.91;5041677;28;20052;-74
2023/09/12 07:33:06;;;;;;;3.33;1.58;;;;;;;21.97;100.00;100623.91;5042061;28;20067;-74
2023/09/12 07:35:32;;;;;;;3.85;2.58;;;;;;;22.66;100.00;100720.63;5033070;28;20057;-75
2023/09/12 07:37:57;;;;;;;4.43;2.67;;;;;;;22.23;100.00;100727.03;5033027;28;20040;-74
2023/09/12 07:40:23;;;;;;;1.25;1.15;;;;;;;22.16;99.79;100717.50;5039911;28;20040;-73
2023/09/12 07:42:48;;;;;;;1.52;1.42;;;;;;;21.95;100.00;100648.03;5042409;28;20068;-75
2023/09/12 07:45:14;;;;;;;1.15;1.05;;;;;;;21.85;93.85;100647.56;5040613;28;20048;-75
2023/09/12 07:47:39;;;;;;;1.73;1.15;;;;;;;22.03;96.10;100631.63;5034822;28;20490;-76
2023/09/12 07:50:06;;;;;;;0.50;0.50;;;;;;;22.81;97.46;100695.00;5039647;28;20420;-74
2023/09/12 07:52:32;;;;;;;2.03;1.85;;;;;;;23.03;95.37;100700.25;5041409;28;20056;-75
2023/09/12 07:55:02;;;;;;;2.47;1.95;;;;;;;22.68;86.35;100708.06;5037334;28;20037;-74
2023/09/12 07:57:31;;;;;;;1.30;1.13;;;;;;;22.69;86.55;100687.56;5031396;28;20100;-74
2023/09/12 07:59:57;;;;;;;1.00;0.95;;;;;;;23.01;86.66;100706.63;5040450;28;20063;-74
2023/09/12 08:02:23;;;;;;;2.15;1.55;;;;;;;23.04;84.61;100701.09;5041082;28;20077;-74
2023/09/12 08:04:51;;;;;;;1.60;1.30;;;;;;;23.12;82.74;100723.91;5039173;28;20489;-73
2023/09/12 08:07:17;;;;;;;0.73;0.73;;;;;;;23.07;92.34;100714.38;5030316;28;20111;-74
2023/09/12 08:09:54;;;;;;;1.70;1.35;;;;;;;22.94;90.35;100703.31;5035900;28;20041;-74
2023/09/12 08:12:21;;;;;;;1.13;1.05;;;;;;;22.56;90.26;100628.38;5044444;28;20041;-74
2023/09/12 08:14:46;;;;;;;1.90;1.15;;;;;;;23.32;90.40;100712.25;5040897;28;20107;-74
2023/09/12 08:17:13;;;;;;;0.80;0.80;;;;;;;22.77;87.51;100659.47;5020573;28;20153;-76
2023/09/12 08:19:39;;;;;;;0.55;0.50;;;;;;;23.53;90.48;100729.09;5043347;28;20040;-74
2023/09/12 08:22:06;;;;;;;1.73;1.63;;;;;;;23.55;86.72;100723.63;5035148;28;20045;-75
2023/09/12 08:24:31;;;;;;;0.47;0.47;;;;;;;22.78;85.85;100630.94;5025538;28;20056;-73
2023/09/12 08:26:57;;;;;;;1.17;0.93;;;;;;;23.14;84.82;100646.19;5028307;28;20576;-75
2023/09/12 08:29:22;;;;;;;1.10;1.00;;;;;;;23.83;84.46;100719.63;5037278;28;20056;-74
2023/09/12 08:31:48;;;;;;;1.75;1.65;;;;;;;23.15;85.60;100654.13;5050496;28;20444;-74
2023/09/12 08:34:13;;;;;;;2.47;2.22;;;;;;;23.98;84.04;100713.50;5037821;28;20147;-75
2023/09/12 08:36:39;;;;;;;3.25;1.95;;;;;;;23.16;78.58;100622.91;5034866;28;20481;-74
2023/09/12 08:39:08;;;;;;;1.02;0.55;;;;;;;23.60;82.25;100702.88;5037592;28;20073;-76
2023/09/12 08:41:33;;;;;;;10.40;1.45;;;;;;;23.79;81.06;100694.81;5036421;28;20055;-73
2023/09/12 08:44:00;;;;;;;1.17;1.08;;;;;;;22.90;77.84;100633.03;5042806;28;20406;-76
2023/09/12 08:46:27;;;;;;;3.08;2.40;;;;;;;22.93;77.17;100634.69;5034488;28;20041;-77
2023/09/12 08:48:56;;;;;;;1.13;1.05;;;;;;;23.02;75.73;100615.53;5035638;28;20068;-75
2023/09/12 08:51:23;;;;;;;1.63;1.20;;;;;;;23.62;74.22;100703.63;5031598;28;20056;-75
2023/09/12 08:53:52;;;;;;;0.75;0.63;;;;;;;23.68;78.84;100673.88;5031370;28;20046;-74
2023/09/12 08:56:18;;;;;;;0.57;0.57;;;;;;;24.00;73.40;100691.03;5031125;28;20064;-74
2023/09/12 08:58:44;;;;;;;1.65;1.30;;;;;;;24.05;71.39;100682.75;5037477;28;20032;-74
2023/09/12 09:01:12;;;;;;;1.42;1.33;;;;;;;24.25;73.88;100687.06;5035860;28;20127;-76
2023/09/12 09:03:42;;;;;;;1.05;0.93;;;;;;;24.46;71.43;100701.16;5036771;28;20060;-75
2023/09/12 09:06:11;;;;;;;1.40;1.23;;;;;;;24.40;70.75;100690.75;5033414;28;20117;-74
2023/09/12 09:08:38;;;;;;;2.45;1.98;;;;;;;24.09;72.12;100624.47;5036249;28;20064;-75
2023/09/12 09:11:05;;;;;;;2.25;2.05;;;;;;;24.43;73.10;100685.22;5029196;28;22312;-73
2023/09/12 09:13:34;;;;;;;0.50;0.50;;;;;;;24.18;73.58;100613.25;5035670;28;20040;-77
2023/09/12 09:16:21;;;;;;;1.67;1.40;;;;;;;24.70;67.17;100701.69;5026927;28;20112;-74
2023/09/12 09:18:49;;;;;;;1.65;0.82;;;;;;;24.83;65.28;100700.06;5044690;28;20095;-73
2023/09/12 09:21:19;;;;;;;1.17;1.08;;;;;;;24.97;63.09;100687.69;5035690;28;20055;-74
2023/09/12 09:23:47;;;;;;;2.15;1.95;;;;;;;25.08;61.88;100687.13;5029673;28;20517;-74
2023/09/12 09:26:12;;;;;;;1.02;0.95;;;;;;;24.99;65.43;100675.91;5027193;28;20046;-77
2023/09/12 09:28:39;;;;;;;2.40;1.10;;;;;;;25.02;64.84;100680.25;5036588;28;20032;-76
2023/09/12 09:31:09;;;;;;;2.28;1.45;;;;;;;25.15;67.48;100694.72;5031372;28;20245;-74
2023/09/12 09:33:36;;;;;;;0.65;0.65;;;;;;;24.50;59.40;100589.22;5031289;28;20048;-74
2023/09/12 09:36:06;;;;;;;1.35;1.27;;;;;;;25.16;61.18;100687.53;5032193;28;20061;-75
2023/09/12 09:38:36;;;;;;;2.47;1.73;;;;;;;24.75;58.50;100602.16;5040020;28;20843;-77
2023/09/12 09:41:06;;;;;;;1.38;1.33;;;;;;;25.27;58.39;100691.38;5038400;28;20407;-75
2023/09/12 09:43:32;;;;;;;1.10;0.90;;;;;;;24.85;58.08;100596.16;5029756;28;20404;-74
2023/09/12 09:45:58;;;;;;;2.13;1.95;;;;;;;25.00;57.29;100604.28;5043916;28;20087;-75
2023/09/12 09:48:28;;;;;;;2.15;0.98;;;;;;;25.18;56.77;100615.84;5023528;28;20722;-77
2023/09/12 09:51:00;;;;;;;5.30;1.20;;;;;;;25.22;55.84;100668.44;5032580;28;20151;-76
2023/09/12 09:53:32;;;;;;;0.88;0.85;;;;;;;25.43;57.26;100669.00;5046041;28;20052;-76
2023/09/12 09:56:18;;;;;;;1.10;0.75;;;;;;;25.68;56.37;100679.19;5033934;28;20072;-77
2023/09/12 09:58:56;;;;;;;1.27;1.13;;;;;;;25.84;55.93;100671.94;5038555;28;20095;-75
2023/09/12 10:01:27;;;;;;;2.80;1.52;;;;;;;25.82;55.11;100668.47;5036953;28;20063;-75
2023/09/12 10:03:56;;;;;;;2.90;0.63;;;;;;;25.66;54.80;100600.44;5043194;28;20052;-76
2023/09/12 10:06:23;;;;;;;3.03;1.58;;;;;;;25.93;55.19;100657.13;5043760;28;20055;-78
2023/09/12 10:08:53;;;;;;;1.42;1.33;;;;;;;26.01;54.31;100665.59;5044721;28;20093;-75
2023/09/12 10:11:22;;;;;;;1.55;1.45;;;;;;;25.58;54.91;100614.34;5041596;28;20041;-77
2023/09/12 10:13:56;;;;;;;1.17;1.10;;;;;;;25.62;54.94;100647.31;5043236;28;20077;-77
2023/09/12 10:16:30;;;;;;;0.52;0.52;;;;;;;25.41;55.13;100584.94;5037079;28;20050;-76
2023/09/12 10:19:13;;;;;;;1.30;1.17;;;;;;;25.88;54.90;100660.06;5043310;28;20100;-75
2023/09/12 10:21:45;;;;;;;;;;;;;;;26.17;54.51;100657.44;5042758;28;20144;-74
2023/09/12 10:24:11;;;;;;;2.78;1.63;;;;;;;25.99;54.11;100577.88;5034824;28;19975;-75
2023/09/12 10:26:42;;;;;;;1.33;1.23;;;;;;;26.58;53.40;100658.56;5024686;28;20053;-76
2023/09/12 10:29:09;;;;;;;0.77;0.77;;;;;;;26.08;53.03;100597.03;5036251;28;20465;-75
2023/09/12 10:31:35;;;;;;;0.80;0.80;;;;;;;26.54;52.30;100649.81;5029755;28;20033;-75
2023/09/12 10:34:02;;;;;;;0.88;0.82;;;;;;;26.67;51.74;100559.25;5037367;28;20386;-74
2023/09/12 10:36:29;;;;;;;0.85;0.75;;;;;;;27.27;50.95;100600.25;5040244;28;20106;-76
2023/09/12 10:38:55;;;;;;;1.67;1.45;;;;;;;27.79;49.95;100637.13;5026668;28;20041;-75
2023/09/12 10:41:23;;;;;;;3.80;2.10;;;;;;;28.20;48.91;100639.69;5040707;28;20048;-77
2023/09/12 10:43:52;;;;;;;3.33;1.15;;;;;;;27.58;48.33;100555.88;5046995;28;20902;-77
2023/09/12 10:46:18;;;;;;;0.73;0.57;;;;;;;27.76;48.22;100553.75;5039283;28;20544;-75
2023/09/12 10:48:44;;;;;;;0.98;0.80;;;;;;;28.02;48.56;100619.41;5040431;28;20048;-74
2023/09/12 10:51:13;;;;;;;5.15;2.28;;;;;;;28.03;48.42;100560.94;5036069;28;20052;-77
2023/09/12 10:53:45;;;;;;;2.95;1.30;;;;;;;28.23;47.09;100525.28;5052347;28;20044;-76
2023/09/12 10:56:20;;;;;;;5.22;1.13;;;;;;;29.24;46.83;100623.25;5032702;28;20132;-76
2023/09/12 10:59:04;;;;;;;15.48;1.55;;;;;;;29.01;46.96;100626.75;5056692;28;20753;-75
2023/09/12 11:01:31;;;;;;;6.63;3.63;;;;;;;28.87;46.51;100543.16;5039620;28;20057;-78
2023/09/12 11:03:57;;;;;;;2.45;2.15;;;;;;;28.17;46.07;100526.59;5041031;28;20060;-77
2023/09/12 11:06:29;;;;;;;2.90;2.58;;;;;;;29.07;45.85;100610.09;5038051;28;20045;-77
2023/09/12 11:09:13;;;;;;;1.67;1.43;;;;;;;29.39;46.67;100618.50;5051912;28;20378;-78
2023/09/12 11:11:39;;;;;;;1.40;1.30;;;;;;;28.20;46.34;100557.88;5044148;28;20520;-74
2023/09/12 11:14:06;;;;;;;1.95;1.20;;;;;;;29.14;46.84;100614.06;5040166;28;20080;-76
2023/09/12 11:16:32;;;;;;;3.38;2.70;;;;;;;29.19;46.16;100597.50;5045152;28;20207;-76
2023/09/12 11:19:16;;;;;;;1.13;1.02;;;;;;;29.62;45.34;100605.09;5044970;28;20041;-76